CYYCCYLL

Guest
Details From CYYC - Calgary Intl
To CYLL - Lloydminster
Flight Number -
Tags Generated
Created
Modified
Stats Distance 196 nm / 364 km
Max Altitude 0 ft / 0 m
Waypoints 2
Social Downloads 1
Likes 0
Share VATSIM

Download

Looking for another format? Having issues loading an existing format? Contact us
Advertisement - Login to hide

Notes

Generated

Route

CYYC CYLL

ID Type Via Altitude Latitude Longitude Leg Dist Tot Dist Heading (true) Name
O CYYC APT - 0 ft / 0 m 51.10417˚ -114.03028˚ - 0 nm - -
O CYLL APT - 0 ft / 0 m 53.31134˚ -110.09109˚ 196 nm 196 nm 46° / 49° -

Altitude Profile

Advertisement - Login to hide

Weather


0- 5 10 15 20 25 30 35+ Temperature / ° C

Clouds and Precipitation
Forecast for 2017-12-17 18:00 UTC. Updated an hour ago

Ground ~20,000 ft ~40,000 ft Winds

CYYC

Details ICAO CYYC (YYC)
Name CALGARY INTL
Region Canada
Timezone America/Edmonton (UTC-7.0)
Stats Elevation 3,557 ft / 1,084 m (AMSL)
Location 51.113197° -114.020044°
Runways 3
Magnetic Variation 14.091° E

METAR

CYYC 171600Z 28020G30KT 40SM FEW030 BKN170 BKN240 05/M10 A2958 RMK SC1AS7CI1 SC TR CI TR SLP059 DENSITY ALT 3700FT

Decode

TAF

TAF CYYC 171438Z 1715/1812 28014G24KT P6SM BKN140 BECMG 1718/1720 28010KT FM180000 29008KT P6SM FEW060 BKN100 OVC200 FM180900 VRB03KT 2SM -SHSN SCT015 OVC030 RMK NXT FCST BY 171800Z

Decode

Departure Runways

ID Width Length Bearing (true) Bearing (mag) Surface Threshold Offset Overrun Length
07 144 ft / 44 m 6,561 ft / 2,000 m 90.76° 76.67° Asphalt 0 ft / 0 m 0 ft / 0 m
10 210 ft / 64 m 8,433 ft / 2,570 m 119.00° 104.91° Asphalt 0 ft / 0 m 0 ft / 0 m
16 200 ft / 61 m 12,703 ft / 3,872 m 179.00° 164.91° Asphalt 0 ft / 0 m 0 ft / 0 m
25 144 ft / 44 m 6,561 ft / 2,000 m 270.78° 256.69° Asphalt 0 ft / 0 m 0 ft / 0 m
28 210 ft / 64 m 8,433 ft / 2,570 m 299.02° 284.93° Asphalt 0 ft / 0 m 121 ft / 37 m
34 200 ft / 61 m 12,703 ft / 3,872 m 359.00° 344.91° Asphalt 0 ft / 0 m 0 ft / 0 m

CYLL

Details ICAO CYLL (YLL)
Name LLOYDMINSTER
Region Canada
Timezone America/Edmonton (UTC-7.0)
Stats Elevation 2,193 ft / 668 m (AMSL)
Location 53.309711° -110.080202°
Runways 2
Magnetic Variation 12.566° E

METAR

CYLL 171600Z 22012KT 15SM BKN060 BKN170 OVC210 M03/M08 A2945 RMK SC5AC1CI2 SLP012

Decode

TAF

TAF CYLL 171139Z 1712/1724 22012KT P6SM SCT050 BKN120 OVC200 PROB30 1714/1717 P6SM -FZRA OVC050 FM171700 26015G25KT P6SM FEW050 BKN200 RMK FCST BASED ON AUTO OBS. NXT FCST BY 171800Z

Decode

Destination Runways

ID Width Length Bearing (true) Bearing (mag) Surface Threshold Offset Overrun Length
08 150 ft / 46 m 5,451 ft / 1,661 m 89.99° 77.42° Asphalt 0 ft / 0 m 0 ft / 0 m
11 100 ft / 30 m 1,496 ft / 456 m 122.06° 109.49° Grass 0 ft / 0 m 0 ft / 0 m
26 150 ft / 46 m 5,451 ft / 1,661 m 270.01° 257.44° Asphalt 0 ft / 0 m 0 ft / 0 m
29 100 ft / 30 m 1,496 ft / 456 m 302.07° 289.50° Grass 0 ft / 0 m 0 ft / 0 m

Popular Alternatives